HOURLY OBSERVATIONS


Time
(EST)
Temperature
°F
Dew Point
°F
Humidity
%
Wind
mph
Pressure
mb
Precip.
Hour
in
Precip.
Day
in
6 Hr
Max Temp
°F
6 Hr
Min Temp
°F
4 02:00 36 31 82 Calm 1017.3 0.00
4 01:00 37 31 80 Calm 1017.5 0.00 47 37
4 00:00 38 31 78 NNE 0 G 1 1017.5 0.00
3 23:00 39 31 75 Calm 1017.4 0.00
3 22:00 40 32 72 Calm 1017.4 0.00
3 21:00 42 32 69 Calm 1017.4 0.00
3 20:00 44 34 67 Calm 1017.5 0.00
3 19:00 47 34 62 NNE 0 G 1 1017.6 0.00 59 47
3 18:00 50 35 55 NE 1 G 3 1017.2 0.00
3 17:00 55 37 51 W 0 G 6 1017.1 0.00
3 16:00 57 37 47 WNW 0 G 3 1016.7 0.00
3 15:00 58 36 44 NNW 2 G 3 1016.6 0.00
3 14:00 58 33 39 N 2 G 4 1017.0 0.00
3 13:00 58 33 38 NNW 1 G 3 1017.5 0.00 58 34
3 12:00 57 33 40 NW 2 G 4 1017.7 0.00
3 11:00 56 33 43 N 1 G 3 1018.2 0.00
3 10:00 53 31 43 NW 1 G 7 1018.2 0.00
3 09:00 46 31 56 N 0 G 2 1018.3 0.00
3 08:00 39 28 65 N 1 G 4 1018.2 0.00
3 07:00 34 27 76 Calm 1017.9 0.00 38 32
3 06:00 32 27 79 N 0 G 1 1017.6 0.00
3 05:00 33 28 80 Calm 1017.4 0.00
3 04:00 34 30 85 N 0 G 1 1017.5 0.00
3 03:00 35 29 78 N 0 G 1 1017.7 0.00
3 02:00 36 29 75 N 0 G 2 1017.8 0.00
3 01:00 38 29 72 Calm 1018.0 0.00 49 38
3 00:00 39 30 70 Calm 1017.8 0.00
2 23:00 41 31 68 Calm 1017.8 0.00
2 22:00 43 31 63 Calm 1018.0 0.00
2 21:00 45 32 62 Calm 1018.4 0.00
2 20:00 47 33 58 Calm 1018.4 0.00
2 19:00 49 33 54 Calm 1018.0 0.00 58 49
2 18:00 52 33 49 N 1 G 4 1018.1 0.00
2 17:00 55 33 43 NW 1 G 3 1018.3 0.00
2 16:00 57 34 42 W 1 G 8 1018.3 0.00
2 15:00 57 33 39 N 2 G 4 1018.4 0.00
2 14:00 57 33 40 WSW 1 G 7 1018.7 0.00
2 13:00 57 35 44 NW 1 G 6 1018.9 0.00 57 35
2 12:00 55 36 49 NNE 2 G 7 1019.4 0.00
2 11:00 54 39 57 N 1 G 5 1019.8 0.00
2 10:00 51 39 62 N 2 G 3 1020.0 0.00
2 09:00 46 39 76 WNW 0 G 4 1020.0 0.00
2 08:00 38 36 91 NW 0 G 4 1020.0 0.00
2 07:00 35 32 90 Calm 1019.5 0.00 36 34
2 06:00 34 31 90 Calm 1018.9 0.00
2 05:00 34 31 89 Calm 1018.6 0.00
2 04:00 34 31 88 Calm 1018.4 0.00
2 03:00 35 31 86 Calm 1017.9 0.00
2 02:00 36 32 84 Calm 1018.0 0.00
2 01:00 36 31 80 Calm 1017.9 0.00 45 36
2 00:00 37 31 78 Calm 1017.8 0.05
1 23:00 38 31 73 Calm 1017.8 0.04
1 22:00 40 31 69 Calm 1017.6 0.04
1 21:00 40 30 67 Calm 1017.6 0.04
1 20:00 42 30 63 NNE 0 G 1 1017.1 0.04
1 19:00 45 31 58 NNE 0 G 1 1016.3 0.04 54 45
1 18:00 47 30 52 NNE 0 G 4 1015.7 0.04
1 17:00 51 31 46 ESE 1 G 4 1015.2 0.04
1 16:00 52 35 51 WNW 2 G 6 1014.9 0.04
1 15:00 53 36 53 NW 2 G 4 1014.9 0.04
1 14:00 51 38 62 NNW 2 G 7 1014.7 0.04
1 13:00 48 38 70 NNW 0 G 5 1014.8 0.04 48 40
1 12:00 46 42 86 NNW 1 G 3 1014.8 0.04
1 11:00 42 39 91 Calm 1015.0 0.04
1 10:00 41 39 91 Calm 1014.7 0.02 0.04
1 09:00 41 38 91 N 0 G 1 1014.3 0.01 0.02
1 08:00 40 38 91 N 0 G 2 1013.6 0.01 0.01
1 07:00 40 38 91 N 0 G 1 1013.2 0.00 41 40
1 06:00 40 37 90 Calm 1012.4 0.00
1 05:00 41 38 90 Calm 1011.8 0.00
1 04:00 41 38 90 Calm 1011.4 0.00
1 03:00 41 38 90 Calm 1011.3 0.00